Time;durP1;ratioP1;P1;durP2;ratioP2;P2;SDS_P1;SDS_P2;PMS_P1;PMS_P2;Temp;Humidity;BMP_temperature;BMP_pressure;BME280_temperature;BME280_humidity;BME280_pressure;Samples;Min_cycle;Max_cycle;Signal;HPM_P1;HPM_P2
2023/12/09 00:02:07;;;;;;;;;;;2.20;99.90;;;;;;5013172;28;19909;-76
2023/12/09 00:04:33;;;;;;;;;;;2.20;99.90;;;;;;5012960;28;19956;-77
2023/12/09 00:06:58;;;;;;;;;;;2.20;99.90;;;;;;5012910;28;20000;-76
2023/12/09 00:09:24;;;;;;;;;;;2.10;99.90;;;;;;5012997;28;19909;-76
2023/12/09 00:11:49;;;;;;;;;;;2.00;99.90;;;;;;5014568;28;19913;-76
2023/12/09 00:14:15;;;;;;;;;;;1.90;99.90;;;;;;5013481;28;19949;-77
2023/12/09 00:16:40;;;;;;;;;;;1.90;99.90;;;;;;5014878;28;19991;-76
2023/12/09 00:19:07;;;;;;;;;;;1.90;99.90;;;;;;5014314;28;20008;-77
2023/12/09 00:21:32;;;;;;;;;;;1.80;99.90;;;;;;5015135;28;19905;-77
2023/12/09 00:23:59;;;;;;;;;;;1.80;99.90;;;;;;5015352;28;19916;-76
2023/12/09 00:26:24;;;;;;;;;;;2.00;99.90;;;;;;5014495;28;19967;-76
2023/12/09 00:28:50;;;;;;;;;;;1.90;99.90;;;;;;5013597;28;20362;-76
2023/12/09 00:31:16;;;;;;;;;;;1.90;99.90;;;;;;5014083;28;19951;-77
2023/12/09 00:33:41;;;;;;;;;;;1.90;99.90;;;;;;5013819;28;19928;-76
2023/12/09 00:36:07;;;;;;;;;;;2.00;99.90;;;;;;5013193;28;19909;-76
2023/12/09 00:38:33;;;;;;;;;;;2.00;99.90;;;;;;5013544;28;19905;-77
2023/12/09 00:40:58;;;;;;;;;;;2.10;99.90;;;;;;5014638;28;20016;-77
2023/12/09 00:43:24;;;;;;;;;;;2.10;99.90;;;;;;5012896;28;19965;-77
2023/12/09 00:45:49;;;;;;;;;;;2.00;99.90;;;;;;5013292;28;19932;-77
2023/12/09 00:48:15;;;;;;;;;;;2.00;99.90;;;;;;5015132;28;19909;-77
2023/12/09 00:50:40;;;;;;;;;;;2.10;99.90;;;;;;5014666;28;19909;-76
2023/12/09 00:53:06;;;;;;;;;;;2.10;99.90;;;;;;5013400;28;19916;-76
2023/12/09 00:55:31;;;;;;;;;;;2.10;99.90;;;;;;5013784;28;19919;-76
2023/12/09 00:57:57;;;;;;;;;;;2.00;99.90;;;;;;5011983;28;19929;-76
2023/12/09 01:00:25;;;;;;;;;;;2.00;99.90;;;;;;5013638;28;19924;-76
2023/12/09 01:02:51;;;;;;;;;;;2.00;99.90;;;;;;5013701;28;19909;-77
2023/12/09 01:05:16;;;;;;;;;;;2.00;99.90;;;;;;5012356;28;20000;-75
2023/12/09 01:07:42;;;;;;;;;;;2.10;99.90;;;;;;5012237;28;19913;-76
2023/12/09 01:10:08;;;;;;;;;;;2.00;99.90;;;;;;5013744;28;20330;-76
2023/12/09 01:12:33;;;;;;;;;;;1.90;99.90;;;;;;5012312;28;19914;-76
2023/12/09 01:14:59;;;;;;;;;;;1.90;99.90;;;;;;5013718;28;19913;-76
2023/12/09 01:17:24;;;;;;;;;;;1.90;99.90;;;;;;5013871;28;19911;-77
2023/12/09 01:19:50;;;;;;;;;;;2.00;99.90;;;;;;5013047;28;19917;-77
2023/12/09 01:22:15;;;;;;;;;;;1.90;99.90;;;;;;5012773;28;20314;-77
2023/12/09 01:24:41;;;;;;;;;;;1.90;99.90;;;;;;5012891;28;20037;-76
2023/12/09 01:27:06;;;;;;;;;;;1.90;99.90;;;;;;5012095;28;19910;-76
2023/12/09 01:29:32;;;;;;;;;;;1.90;99.90;;;;;;5012186;28;19913;-76
2023/12/09 01:31:57;;;;;;;;;;;1.80;99.90;;;;;;5010456;28;19917;-77
2023/12/09 01:34:23;;;;;;;;;;;2.00;99.90;;;;;;5010675;28;20366;-77
2023/12/09 01:36:48;;;;;;;;;;;2.00;99.90;;;;;;5010512;28;20003;-76
2023/12/09 01:39:14;;;;;;;;;;;2.10;99.90;;;;;;5011777;28;19909;-76
2023/12/09 01:41:39;;;;;;;;;;;2.00;99.90;;;;;;5009698;28;20424;-76
2023/12/09 01:44:05;;;;;;;;;;;1.90;99.90;;;;;;5012704;28;19973;-77
2023/12/09 01:46:31;;;;;;;;;;;1.90;99.90;;;;;;5010272;28;19905;-76
2023/12/09 01:48:57;;;;;;;;;;;2.00;99.90;;;;;;5011855;28;19909;-76
2023/12/09 01:51:23;;;;;;;;;;;2.00;99.90;;;;;;5010492;28;19951;-77
2023/12/09 01:53:49;;;;;;;;;;;2.00;99.90;;;;;;5010610;28;19909;-76
2023/12/09 01:56:16;;;;;;;;;;;2.00;99.90;;;;;;5012428;28;19912;-77
2023/12/09 01:58:42;;;;;;;;;;;2.00;99.90;;;;;;5012768;28;19909;-76
2023/12/09 02:01:08;;;;;;;;;;;1.90;99.90;;;;;;5010925;28;19920;-77
2023/12/09 02:03:33;;;;;;;;;;;1.80;99.90;;;;;;5012874;28;20115;-76
2023/12/09 02:05:59;;;;;;;;;;;1.80;99.90;;;;;;5012533;28;20425;-76
2023/12/09 02:08:26;;;;;;;;;;;2.00;99.90;;;;;;5011124;28;19913;-76
2023/12/09 02:11:00;;;;;;;;;;;1.80;99.90;;;;;;5010751;28;20806;-77
2023/12/09 02:13:39;;;;;;;;;;;1.80;99.90;;;;;;5010387;28;19912;-76
2023/12/09 02:16:16;;;;;;;;;;;1.90;99.90;;;;;;5011980;28;19905;-76
2023/12/09 02:18:43;;;;;;;;;;;1.90;99.90;;;;;;5009629;28;19914;-77
2023/12/09 02:21:09;;;;;;;;;;;1.90;99.90;;;;;;5011094;28;19913;-77
2023/12/09 02:23:35;;;;;;;;;;;1.70;99.90;;;;;;5011929;28;19912;-76
2023/12/09 02:26:16;;;;;;;;;;;1.70;99.90;;;;;;5011934;28;19913;-76
2023/12/09 02:28:45;;;;;;;;;;;1.70;99.90;;;;;;5010646;28;19931;-77
2023/12/09 02:31:11;;;;;;;;;;;1.70;99.90;;;;;;5009971;28;19909;-77
2023/12/09 02:33:37;;;;;;;;;;;1.70;99.90;;;;;;5012171;28;19921;-77
2023/12/09 02:36:03;;;;;;;;;;;1.70;99.90;;;;;;5010343;28;19906;-77
2023/12/09 02:38:29;;;;;;;;;;;1.70;99.90;;;;;;5011073;28;19912;-77
2023/12/09 02:40:56;;;;;;;;;;;1.80;99.90;;;;;;5012514;28;19952;-77
2023/12/09 02:43:21;;;;;;;;;;;1.70;99.90;;;;;;5013006;28;19909;-77
2023/12/09 02:45:47;;;;;;;;;;;1.80;99.90;;;;;;5012808;28;20397;-77
2023/12/09 02:48:12;;;;;;;;;;;1.80;99.90;;;;;;5012939;28;19910;-77
2023/12/09 02:50:38;;;;;;;;;;;1.80;99.90;;;;;;5013192;28;19916;-77
2023/12/09 02:53:03;;;;;;;;;;;1.80;99.90;;;;;;5011261;28;19909;-77
2023/12/09 02:55:29;;;;;;;;;;;1.80;99.90;;;;;;5012170;28;19905;-77
2023/12/09 02:57:54;;;;;;;;;;;1.80;99.90;;;;;;5011829;28;19912;-77
2023/12/09 03:00:20;;;;;;;;;;;1.80;99.90;;;;;;5011186;28;19920;-77
2023/12/09 03:02:45;;;;;;;;;;;1.90;99.90;;;;;;5010026;28;20374;-77
2023/12/09 03:05:11;;;;;;;;;;;1.90;99.90;;;;;;5010347;28;20312;-76
2023/12/09 03:07:36;;;;;;;;;;;1.90;99.90;;;;;;5010017;28;19912;-78
2023/12/09 03:10:02;;;;;;;;;;;1.90;99.90;;;;;;5011643;28;19920;-77
2023/12/09 03:12:28;;;;;;;;;;;1.80;99.90;;;;;;5010578;28;19905;-77
2023/12/09 03:14:53;;;;;;;;;;;1.70;99.90;;;;;;5011706;28;19906;-77
2023/12/09 03:17:19;;;;;;;;;;;1.70;99.90;;;;;;5011931;28;19999;-78
2023/12/09 03:19:44;;;;;;;;;;;1.60;99.90;;;;;;5012022;28;20385;-77
2023/12/09 03:22:10;;;;;;;;;;;1.60;99.90;;;;;;5010795;28;20263;-77
2023/12/09 03:24:35;;;;;;;;;;;1.60;99.90;;;;;;5011994;28;19909;-77
2023/12/09 03:27:01;;;;;;;;;;;1.60;99.90;;;;;;5012399;28;19906;-77
2023/12/09 03:29:26;;;;;;;;;;;1.60;99.90;;;;;;5012043;28;19916;-77
2023/12/09 03:31:52;;;;;;;;;;;1.70;99.90;;;;;;5010895;28;20382;-77
2023/12/09 03:34:17;;;;;;;;;;;1.60;99.90;;;;;;5010561;28;19976;-77
2023/12/09 03:36:43;;;;;;;;;;;1.70;99.90;;;;;;5011553;28;19972;-77
2023/12/09 03:39:09;;;;;;;;;;;1.70;99.90;;;;;;5012504;28;20003;-77
2023/12/09 03:41:35;;;;;;;;;;;1.80;99.90;;;;;;5009465;28;19924;-77
2023/12/09 03:44:01;;;;;;;;;;;1.70;99.90;;;;;;5010672;28;19910;-78
2023/12/09 03:46:26;;;;;;;;;;;1.70;99.90;;;;;;5010456;28;19917;-76
2023/12/09 03:48:52;;;;;;;;;;;1.60;99.90;;;;;;5008953;28;19910;-77
2023/12/09 03:51:17;;;;;;;;;;;1.60;99.90;;;;;;5010598;28;20645;-78
2023/12/09 03:53:43;;;;;;;;;;;1.50;99.90;;;;;;5010825;28;19905;-77
2023/12/09 03:56:09;;;;;;;;;;;1.40;99.90;;;;;;5010921;28;19910;-77
2023/12/09 03:58:36;;;;;;;;;;;1.50;99.90;;;;;;5010488;28;19979;-77
2023/12/09 04:01:02;;;;;;;;;;;1.60;99.90;;;;;;5009570;28;19917;-77
2023/12/09 04:03:27;;;;;;;;;;;1.60;99.90;;;;;;5010981;28;20006;-76
2023/12/09 04:05:53;;;;;;;;;;;1.70;99.90;;;;;;5012778;28;19956;-78
2023/12/09 04:08:18;;;;;;;;;;;1.60;99.90;;;;;;5012840;28;19905;-78
2023/12/09 04:10:44;;;;;;;;;;;1.60;99.90;;;;;;5013535;28;19913;-77
2023/12/09 04:13:09;;;;;;;;;;;1.60;99.90;;;;;;5013275;28;19909;-77
2023/12/09 04:15:35;;;;;;;;;;;1.60;99.90;;;;;;5014414;28;19937;-77
2023/12/09 04:18:00;;;;;;;;;;;1.60;99.90;;;;;;5014122;28;19909;-77
2023/12/09 04:20:26;;;;;;;;;;;1.50;99.90;;;;;;5014243;28;19921;-78
2023/12/09 04:22:51;;;;;;;;;;;1.50;99.90;;;;;;5012601;28;19951;-77
2023/12/09 04:25:17;;;;;;;;;;;1.60;99.90;;;;;;5012579;28;19913;-78
2023/12/09 04:27:42;;;;;;;;;;;1.40;99.90;;;;;;5013289;28;20374;-78
2023/12/09 04:30:09;;;;;;;;;;;1.40;99.90;;;;;;5012980;28;19956;-76
2023/12/09 04:32:35;;;;;;;;;;;1.50;99.90;;;;;;5012614;28;19951;-77
2023/12/09 04:35:00;;;;;;;;;;;1.50;99.90;;;;;;5012907;28;19941;-77
2023/12/09 04:37:26;;;;;;;;;;;1.60;99.90;;;;;;5013154;28;20271;-77
2023/12/09 04:39:51;;;;;;;;;;;1.70;99.90;;;;;;5013320;28;20452;-77
2023/12/09 04:42:18;;;;;;;;;;;1.60;99.90;;;;;;5014295;28;19905;-77
2023/12/09 04:44:43;;;;;;;;;;;1.50;99.90;;;;;;5014299;28;19916;-77
2023/12/09 04:47:09;;;;;;;;;;;1.50;99.90;;;;;;5014117;28;19996;-76
2023/12/09 04:49:35;;;;;;;;;;;1.50;99.90;;;;;;5012539;28;20400;-77
2023/12/09 04:52:00;;;;;;;;;;;1.50;99.90;;;;;;5014395;28;20015;-77
2023/12/09 04:54:28;;;;;;;;;;;1.50;99.90;;;;;;5013592;28;19905;-76
2023/12/09 04:56:54;;;;;;;;;;;1.60;99.90;;;;;;5012148;28;19912;-76
2023/12/09 04:59:19;;;;;;;;;;;1.50;99.90;;;;;;5013550;28;19913;-77
2023/12/09 05:01:45;;;;;;;;;;;1.40;99.90;;;;;;5014918;28;19917;-76
2023/12/09 05:04:11;;;;;;;;;;;1.40;99.90;;;;;;5014428;28;19913;-77
2023/12/09 05:06:36;;;;;;;;;;;1.50;99.90;;;;;;5013030;28;19977;-77
2023/12/09 05:09:02;;;;;;;;;;;1.60;99.90;;;;;;5013073;28;19909;-77
2023/12/09 05:11:28;;;;;;;;;;;1.50;99.90;;;;;;5013855;28;19940;-77
2023/12/09 05:13:53;;;;;;;;;;;1.60;99.90;;;;;;5012560;28;20279;-76
2023/12/09 05:16:19;;;;;;;;;;;1.60;99.90;;;;;;5013876;28;20398;-77
2023/12/09 05:18:45;;;;;;;;;;;1.50;99.90;;;;;;5013737;28;19912;-76
2023/12/09 05:21:14;;;;;;;;;;;1.70;99.90;;;;;;5012489;28;20004;-77
2023/12/09 05:23:40;;;;;;;;;;;1.60;99.90;;;;;;5013873;28;19912;-77
2023/12/09 05:26:06;;;;;;;;;;;1.60;99.90;;;;;;5014240;28;19909;-77
2023/12/09 05:28:31;;;;;;;;;;;1.50;99.90;;;;;;5014023;28;19917;-77
2023/12/09 05:30:57;;;;;;;;;;;1.50;99.90;;;;;;5012118;28;19909;-75
2023/12/09 05:33:22;;;;;;;;;;;1.60;99.90;;;;;;5010679;28;19925;-75
2023/12/09 05:35:48;;;;;;;;;;;1.60;99.90;;;;;;5012192;28;20012;-74
2023/12/09 05:38:13;;;;;;;;;;;1.60;99.90;;;;;;5011428;28;19909;-75
2023/12/09 05:40:39;;;;;;;;;;;1.60;99.90;;;;;;5012780;28;19989;-76
2023/12/09 05:43:04;;;;;;;;;;;1.50;99.90;;;;;;5014258;28;19992;-76
2023/12/09 05:45:30;;;;;;;;;;;1.50;99.90;;;;;;5014110;28;19920;-76
2023/12/09 05:47:56;;;;;;;;;;;1.70;99.90;;;;;;5014042;28;19917;-77
2023/12/09 05:50:21;;;;;;;;;;;1.60;99.90;;;;;;5013211;28;19917;-77
2023/12/09 05:52:47;;;;;;;;;;;1.60;99.90;;;;;;5012845;28;19965;-76
2023/12/09 05:55:16;;;;;;;;;;;1.60;99.90;;;;;;5011809;28;19906;-74
2023/12/09 05:57:42;;;;;;;;;;;1.60;99.90;;;;;;5011971;28;20112;-75
2023/12/09 06:00:09;;;;;;;;;;;1.60;99.90;;;;;;5012176;28;19933;-75
2023/12/09 06:02:35;;;;;;;;;;;1.50;99.90;;;;;;5010836;28;19988;-76
2023/12/09 06:05:00;;;;;;;;;;;1.60;99.90;;;;;;5011473;28;19992;-76
2023/12/09 06:07:26;;;;;;;;;;;1.60;99.90;;;;;;5011147;28;20005;-76
2023/12/09 06:09:51;;;;;;;;;;;1.60;99.90;;;;;;5011885;28;19932;-77
2023/12/09 06:12:17;;;;;;;;;;;1.50;99.90;;;;;;5011135;28;19909;-77
2023/12/09 06:14:42;;;;;;;;;;;1.40;99.90;;;;;;5012389;28;19906;-76
2023/12/09 06:17:08;;;;;;;;;;;1.50;99.90;;;;;;5006219;28;19936;-75
2023/12/09 06:19:33;;;;;;;;;;;1.70;99.90;;;;;;5010221;28;20007;-77
2023/12/09 06:21:59;;;;;;;;;;;1.60;99.90;;;;;;5010611;28;20011;-76
2023/12/09 06:24:24;;;;;;;;;;;1.60;99.90;;;;;;5011987;28;19916;-76
2023/12/09 06:26:50;;;;;;;;;;;1.60;99.90;;;;;;5011977;28;19917;-75
2023/12/09 06:29:15;;;;;;;;;;;1.60;99.90;;;;;;5010209;28;19909;-76
2023/12/09 06:31:41;;;;;;;;;;;1.60;99.90;;;;;;5010868;28;19912;-76
2023/12/09 06:34:06;;;;;;;;;;;1.50;99.90;;;;;;5013375;28;19918;-76
2023/12/09 06:36:32;;;;;;;;;;;1.40;99.90;;;;;;5012471;28;20004;-77
2023/12/09 06:38:58;;;;;;;;;;;1.50;99.90;;;;;;5012285;28;19913;-76
2023/12/09 06:41:23;;;;;;;;;;;1.50;99.90;;;;;;5011734;28;20475;-76
2023/12/09 06:43:49;;;;;;;;;;;1.70;99.90;;;;;;5010556;28;19924;-75
2023/12/09 06:46:14;;;;;;;;;;;1.60;99.90;;;;;;5010954;28;19906;-76
2023/12/09 06:48:40;;;;;;;;;;;1.60;99.90;;;;;;5010632;28;19905;-75
2023/12/09 06:51:12;;;;;;;;;;;1.50;99.90;;;;;;5010989;28;20465;-76
2023/12/09 06:53:38;;;;;;;;;;;1.60;99.90;;;;;;5011953;28;19917;-75
2023/12/09 06:56:04;;;;;;;;;;;1.50;99.90;;;;;;5012481;28;19909;-76
2023/12/09 06:58:30;;;;;;;;;;;1.50;99.90;;;;;;5011287;28;20282;-76
2023/12/09 07:00:55;;;;;;;;;;;1.50;99.90;;;;;;5010772;28;19964;-76
2023/12/09 07:03:21;;;;;;;;;;;1.40;99.90;;;;;;5012719;28;19909;-76
2023/12/09 07:05:46;;;;;;;;;;;1.50;99.90;;;;;;5010924;28;19927;-76
2023/12/09 07:08:12;;;;;;;;;;;1.50;99.90;;;;;;5011235;28;19921;-76
2023/12/09 07:10:37;;;;;;;;;;;1.50;99.90;;;;;;5012808;28;19905;-76
2023/12/09 07:13:04;;;;;;;;;;;1.50;99.90;;;;;;5013381;28;19909;-76
2023/12/09 07:15:30;;;;;;;;;;;1.50;99.90;;;;;;5013142;28;19906;-76
2023/12/09 07:17:55;;;;;;;;;;;1.60;99.90;;;;;;5011648;28;19912;-75
2023/12/09 07:20:21;;;;;;;;;;;1.60;99.90;;;;;;5013420;28;19909;-76
2023/12/09 07:22:46;;;;;;;;;;;1.50;99.90;;;;;;5012482;28;19913;-75
2023/12/09 07:25:12;;;;;;;;;;;1.70;99.90;;;;;;5010993;28;20003;-76
2023/12/09 07:27:37;;;;;;;;;;;1.50;99.90;;;;;;5011981;28;19920;-76
2023/12/09 07:30:03;;;;;;;;;;;1.50;99.90;;;;;;5012490;28;20492;-76
2023/12/09 07:32:29;;;;;;;;;;;1.50;99.90;;;;;;5010733;28;19916;-75
2023/12/09 07:34:54;;;;;;;;;;;1.60;99.90;;;;;;5012171;28;19921;-76
2023/12/09 07:37:20;;;;;;;;;;;1.60;99.90;;;;;;5005573;28;19959;-76
2023/12/09 07:39:45;;;;;;;;;;;1.70;99.90;;;;;;5012352;28;19917;-76
2023/12/09 07:42:11;;;;;;;;;;;1.70;99.90;;;;;;5014685;28;19905;-75
2023/12/09 07:44:36;;;;;;;;;;;1.60;99.90;;;;;;5014094;28;19906;-76
2023/12/09 07:47:02;;;;;;;;;;;1.60;99.90;;;;;;5015421;28;19917;-76
2023/12/09 07:49:27;;;;;;;;;;;1.60;99.90;;;;;;5016004;28;19944;-77
2023/12/09 07:51:53;;;;;;;;;;;1.60;99.90;;;;;;5016167;28;19911;-76
2023/12/09 07:54:19;;;;;;;;;;;1.60;99.90;;;;;;5015012;28;19906;-77
2023/12/09 07:56:44;;;;;;;;;;;1.50;99.90;;;;;;5014567;28;19959;-76
2023/12/09 07:59:10;;;;;;;;;;;1.60;99.90;;;;;;5015044;28;19936;-75
2023/12/09 08:01:36;;;;;;;;;;;1.60;99.90;;;;;;5016632;28;19909;-77
2023/12/09 08:04:01;;;;;;;;;;;1.70;99.90;;;;;;5016296;28;19905;-76
2023/12/09 08:06:27;;;;;;;;;;;1.70;99.90;;;;;;5013930;28;20500;-76
2023/12/09 08:08:52;;;;;;;;;;;1.60;99.90;;;;;;5012545;28;19920;-76
2023/12/09 08:11:21;;;;;;;;;;;1.50;99.90;;;;;;5014007;28;19905;-76
2023/12/09 08:13:47;;;;;;;;;;;1.50;99.90;;;;;;5012359;28;19909;-76
2023/12/09 08:16:13;;;;;;;;;;;1.50;99.90;;;;;;5012673;28;19913;-76
2023/12/09 08:18:39;;;;;;;;;;;1.50;99.90;;;;;;5013847;28;20007;-76
2023/12/09 08:21:05;;;;;;;;;;;1.50;99.90;;;;;;5013248;28;19999;-76
2023/12/09 08:23:30;;;;;;;;;;;1.50;99.90;;;;;;5012460;28;19951;-76
2023/12/09 08:25:56;;;;;;;;;;;1.40;99.90;;;;;;5013849;28;19905;-75
2023/12/09 08:28:21;;;;;;;;;;;1.50;99.90;;;;;;5012301;28;19957;-76
2023/12/09 08:30:47;;;;;;;;;;;1.50;99.90;;;;;;5012192;28;19912;-75
2023/12/09 08:33:13;;;;;;;;;;;1.60;99.90;;;;;;5013027;28;19928;-75
2023/12/09 08:35:38;;;;;;;;;;;1.60;99.90;;;;;;5011939;28;19905;-75
2023/12/09 08:38:04;;;;;;;;;;;1.60;99.90;;;;;;5013242;28;19905;-75
2023/12/09 08:40:29;;;;;;;;;;;1.50;99.90;;;;;;5011882;28;19918;-74
2023/12/09 08:42:55;;;;;;;;;;;1.70;99.90;;;;;;5011828;28;19913;-77
2023/12/09 08:45:20;;;;;;;;;;;1.60;99.90;;;;;;5012247;28;19909;-75
2023/12/09 08:47:46;;;;;;;;;;;1.60;99.90;;;;;;5013171;28;20378;-75
2023/12/09 08:50:12;;;;;;;;;;;1.60;99.90;;;;;;5011474;28;19914;-75
2023/12/09 08:52:38;;;;;;;;;;;1.70;99.90;;;;;;5011521;28;19977;-75
2023/12/09 08:55:04;;;;;;;;;;;1.60;99.90;;;;;;5012033;28;20455;-74
2023/12/09 08:57:29;;;;;;;;;;;1.60;99.90;;;;;;5014042;28;19959;-76
2023/12/09 08:59:55;;;;;;;;;;;1.70;99.90;;;;;;5011765;28;19972;-76
2023/12/09 09:02:21;;;;;;;;;;;1.50;99.90;;;;;;5013633;28;20394;-76
2023/12/09 09:04:46;;;;;;;;;;;1.50;99.90;;;;;;5012164;28;19906;-76
2023/12/09 09:07:13;;;;;;;;;;;1.50;99.90;;;;;;5011757;28;19913;-76
2023/12/09 09:09:41;;;;;;;;;;;1.60;99.90;;;;;;5012274;28;20451;-75
2023/12/09 09:12:07;;;;;;;;;;;1.70;99.90;;;;;;5012274;28;20342;-76
2023/12/09 09:14:33;;;;;;;;;;;1.60;99.90;;;;;;5013190;28;19996;-75
2023/12/09 09:16:59;;;;;;;;;;;1.70;99.90;;;;;;5012082;28;19909;-75
2023/12/09 09:19:25;;;;;;;;;;;1.60;99.90;;;;;;5013771;28;19935;-76
2023/12/09 09:21:52;;;;;;;;;;;1.60;99.90;;;;;;5012517;28;19921;-76
2023/12/09 09:24:18;;;;;;;;;;;1.70;99.90;;;;;;5012565;28;19906;-75
2023/12/09 09:26:43;;;;;;;;;;;1.80;99.90;;;;;;5013390;28;19933;-76
2023/12/09 09:29:10;;;;;;;;;;;1.80;99.90;;;;;;5011893;28;19905;-76
2023/12/09 09:31:36;;;;;;;;;;;1.90;99.90;;;;;;5011703;28;19905;-75
2023/12/09 09:34:01;;;;;;;;;;;2.00;99.90;;;;;;5012610;28;19943;-76
2023/12/09 09:36:27;;;;;;;;;;;2.00;99.90;;;;;;5013764;28;19916;-75
2023/12/09 09:38:52;;;;;;;;;;;2.10;99.90;;;;;;5012211;28;20382;-75
2023/12/09 09:41:22;;;;;;;;;;;2.20;99.90;;;;;;5013451;28;19910;-75
2023/12/09 09:43:54;;;;;;;;;;;2.10;99.90;;;;;;5013969;28;19916;-75
2023/12/09 09:46:20;;;;;;;;;;;2.20;99.90;;;;;;5013878;28;19909;-76
2023/12/09 09:48:47;;;;;;;;;;;2.30;99.90;;;;;;5012902;28;19912;-76
2023/12/09 09:51:15;;;;;;;;;;;2.30;99.90;;;;;;5013022;28;19940;-76
2023/12/09 09:53:43;;;;;;;;;;;2.50;99.90;;;;;;5014343;28;19992;-75
2023/12/09 09:56:09;;;;;;;;;;;2.60;99.90;;;;;;5013670;28;19906;-77
2023/12/09 09:58:35;;;;;;;;;;;2.70;99.90;;;;;;5014207;28;19912;-76
2023/12/09 10:01:04;;;;;;;;;;;2.80;99.90;;;;;;5014831;28;19999;-75
2023/12/09 10:03:29;;;;;;;;;;;2.90;99.90;;;;;;5013878;28;19905;-76
2023/12/09 10:05:55;;;;;;;;;;;3.00;99.90;;;;;;5015926;28;19906;-76
2023/12/09 10:08:21;;;;;;;;;;;2.90;99.90;;;;;;5016700;28;19910;-76
2023/12/09 10:10:46;;;;;;;;;;;3.10;99.90;;;;;;5015576;28;19939;-77
2023/12/09 10:13:12;;;;;;;;;;;3.00;99.90;;;;;;5018324;28;19913;-77
2023/12/09 10:15:37;;;;;;;;;;;2.90;99.90;;;;;;5014193;28;19913;-76
2023/12/09 10:18:03;;;;;;;;;;;3.10;99.90;;;;;;5014208;28;19905;-76
2023/12/09 10:20:29;;;;;;;;;;;3.10;99.90;;;;;;5014164;28;19913;-76
2023/12/09 10:22:55;;;;;;;;;;;3.10;99.90;;;;;;5015635;28;19916;-76
2023/12/09 10:25:24;;;;;;;;;;;3.20;99.90;;;;;;5061467;23;19921;-76
2023/12/09 10:27:50;;;;;;;;;;;3.30;99.90;;;;;;5011449;28;19909;-76
2023/12/09 10:30:16;;;;;;;;;;;3.30;99.90;;;;;;5009390;28;19917;-77
2023/12/09 10:32:49;;;;;;;;;;;3.40;99.90;;;;;;5008670;28;19909;-76
2023/12/09 10:35:17;;;;;;;;;;;3.40;99.90;;;;;;5007831;28;19928;-76
2023/12/09 10:37:43;;;;;;;;;;;3.50;99.90;;;;;;5008991;28;19909;-76
2023/12/09 10:40:09;;;;;;;;;;;3.50;99.90;;;;;;5008825;28;20431;-76
2023/12/09 10:42:38;;;;;;;;;;;3.50;99.90;;;;;;5009221;28;20008;-77
2023/12/09 10:45:08;;;;;;;;;;;3.60;99.90;;;;;;5010128;28;19910;-77
2023/12/09 10:47:34;;;;;;;;;;;3.50;99.90;;;;;;5009015;28;19914;-77
2023/12/09 10:50:00;;;;;;;;;;;3.50;99.90;;;;;;5008605;28;19915;-77
2023/12/09 10:52:27;;;;;;;;;;;3.50;99.90;;;;;;5010201;28;19916;-76
2023/12/09 10:54:53;;;;;;;;;;;3.40;99.90;;;;;;5008914;28;19979;-77
2023/12/09 10:57:18;;;;;;;;;;;3.40;99.90;;;;;;5009825;28;19941;-77
2023/12/09 10:59:44;;;;;;;;;;;3.40;99.90;;;;;;5009308;28;19914;-77
2023/12/09 11:02:11;;;;;;;;;;;3.40;99.90;;;;;;5010659;28;20293;-77
2023/12/09 11:04:36;;;;;;;;;;;3.40;99.90;;;;;;5009599;28;19916;-77
2023/12/09 11:07:03;;;;;;;;;;;3.60;99.90;;;;;;5010900;28;19905;-76
2023/12/09 11:09:30;;;;;;;;;;;3.60;99.90;;;;;;5009748;28;19909;-77
2023/12/09 11:11:55;;;;;;;;;;;3.50;99.90;;;;;;5010977;28;19960;-77
2023/12/09 11:14:25;;;;;;;;;;;3.30;99.90;;;;;;5011025;28;20332;-76
2023/12/09 11:16:50;;;;;;;;;;;3.30;99.90;;;;;;5015182;28;19906;-76
2023/12/09 11:19:16;;;;;;;;;;;3.30;99.90;;;;;;5014718;28;19933;-77
2023/12/09 11:21:46;;;;;;;;;;;3.40;99.90;;;;;;5014072;28;19936;-77
2023/12/09 11:24:12;;;;;;;;;;;3.50;99.90;;;;;;5013700;28;20374;-76
2023/12/09 11:26:39;;;;;;;;;;;3.50;99.90;;;;;;5014022;28;19941;-76
2023/12/09 11:29:05;;;;;;;;;;;3.40;99.90;;;;;;5014369;28;19916;-75
2023/12/09 11:31:38;;;;;;;;;;;3.50;99.90;;;;;;5015240;28;19909;-77
2023/12/09 11:34:20;;;;;;;;;;;3.40;99.90;;;;;;5013886;28;19913;-77
2023/12/09 11:36:46;;;;;;;;;;;3.10;99.90;;;;;;5013231;28;19916;-77
2023/12/09 11:39:13;;;;;;;;;;;3.20;99.90;;;;;;5014171;28;19906;-76
2023/12/09 11:41:41;;;;;;;;;;;3.20;99.90;;;;;;5012619;28;19909;-76
2023/12/09 11:44:08;;;;;;;;;;;3.20;99.90;;;;;;5013984;28;19997;-77
2023/12/09 11:46:34;;;;;;;;;;;3.30;99.90;;;;;;5013545;28;19909;-76
2023/12/09 11:49:00;;;;;;;;;;;3.20;99.90;;;;;;5013192;28;19914;-77
2023/12/09 11:51:26;;;;;;;;;;;3.10;99.90;;;;;;5007018;28;19909;-76
2023/12/09 11:53:59;;;;;;;;;;;3.00;99.90;;;;;;5014712;28;19909;-76
2023/12/09 11:56:25;;;;;;;;;;;3.00;99.90;;;;;;5014565;28;19905;-77
2023/12/09 11:58:51;;;;;;;;;;;3.00;99.90;;;;;;5014081;28;19912;-77
2023/12/09 12:01:17;;;;;;;;;;;3.00;99.90;;;;;;5012497;28;19917;-76
2023/12/09 12:03:44;;;;;;;;;;;3.10;99.90;;;;;;5013686;28;20000;-77
2023/12/09 12:06:10;;;;;;;;;;;3.00;99.90;;;;;;5014217;28;20019;-76
2023/12/09 12:08:35;;;;;;;;;;;3.00;99.90;;;;;;5014157;28;20405;-77
2023/12/09 12:11:01;;;;;;;;;;;3.10;99.90;;;;;;5014983;28;19928;-77
2023/12/09 12:13:27;;;;;;;;;;;3.10;99.90;;;;;;5014047;28;19963;-77
2023/12/09 12:15:54;;;;;;;;;;;3.20;99.90;;;;;;5012462;28;19924;-76
2023/12/09 12:18:21;;;;;;;;;;;3.30;99.90;;;;;;5015570;28;19955;-77
2023/12/09 12:20:47;;;;;;;;;;;3.10;99.90;;;;;;5016292;28;19917;-78
2023/12/09 12:23:13;;;;;;;;;;;3.10;99.90;;;;;;5013594;28;19909;-77
2023/12/09 12:25:38;;;;;;;;;;;3.30;99.90;;;;;;5011968;28;19921;-77
2023/12/09 12:28:04;;;;;;;;;;;3.10;99.90;;;;;;5012854;28;19910;-77
2023/12/09 12:30:30;;;;;;;;;;;2.90;99.90;;;;;;5012537;28;19920;-77
2023/12/09 12:32:56;;;;;;;;;;;2.90;99.90;;;;;;5013478;28;19988;-77
2023/12/09 12:35:22;;;;;;;;;;;3.00;99.90;;;;;;5012374;28;19913;-77
2023/12/09 12:37:48;;;;;;;;;;;3.00;99.90;;;;;;5011694;28;19964;-76
2023/12/09 12:40:13;;;;;;;;;;;3.10;99.90;;;;;;5012951;28;20016;-78
2023/12/09 12:42:39;;;;;;;;;;;3.10;99.90;;;;;;5012501;28;19940;-76
2023/12/09 12:45:18;;;;;;;;;;;3.10;99.90;;;;;;5012675;28;19948;-77
2023/12/09 12:47:47;;;;;;;;;;;3.10;99.90;;;;;;5011508;28;19916;-76
2023/12/09 12:50:13;;;;;;;;;;;3.10;99.90;;;;;;5009216;28;20032;-76
2023/12/09 12:52:38;;;;;;;;;;;3.10;99.90;;;;;;5012147;28;20052;-76
2023/12/09 12:55:04;;;;;;;;;;;3.10;99.90;;;;;;5010649;28;19959;-76
2023/12/09 12:57:32;;;;;;;;;;;3.00;99.90;;;;;;5010949;28;19920;-76
2023/12/09 12:59:58;;;;;;;;;;;3.10;99.90;;;;;;5011983;28;19961;-77
2023/12/09 13:02:23;;;;;;;;;;;3.00;99.90;;;;;;5012383;28;19999;-76
2023/12/09 13:04:49;;;;;;;;;;;3.00;99.90;;;;;;5011112;28;20039;-77
2023/12/09 13:07:15;;;;;;;;;;;3.00;99.90;;;;;;5012753;28;19909;-75
2023/12/09 13:09:41;;;;;;;;;;;3.00;99.90;;;;;;5012921;28;19916;-77
2023/12/09 13:12:07;;;;;;;;;;;3.00;99.90;;;;;;5011883;28;19909;-77
2023/12/09 13:14:33;;;;;;;;;;;3.00;99.90;;;;;;5012055;28;19918;-76
2023/12/09 13:16:59;;;;;;;;;;;3.00;99.90;;;;;;5013419;28;20533;-76
2023/12/09 13:19:24;;;;;;;;;;;3.10;99.90;;;;;;5011607;28;19920;-77
2023/12/09 13:21:50;;;;;;;;;;;3.10;99.90;;;;;;5012431;28;19910;-76
2023/12/09 13:24:15;;;;;;;;;;;3.10;99.90;;;;;;5011681;28;19920;-77
2023/12/09 13:26:41;;;;;;;;;;;3.10;99.90;;;;;;5011828;28;19944;-76
2023/12/09 13:29:06;;;;;;;;;;;2.90;99.90;;;;;;5010418;28;20333;-77
2023/12/09 13:31:32;;;;;;;;;;;2.90;99.90;;;;;;5011400;28;20384;-77
2023/12/09 13:33:58;;;;;;;;;;;2.90;99.90;;;;;;5011175;28;20003;-77
2023/12/09 13:36:23;;;;;;;;;;;2.90;99.90;;;;;;5012445;28;20449;-76
2023/12/09 13:38:49;;;;;;;;;;;2.80;99.90;;;;;;5011074;28;19913;-76
2023/12/09 13:41:14;;;;;;;;;;;2.80;99.90;;;;;;5013048;28;20221;-76
2023/12/09 13:43:41;;;;;;;;;;;2.80;99.90;;;;;;5013192;28;20397;-77
2023/12/09 13:46:07;;;;;;;;;;;2.80;99.90;;;;;;5012237;28;19963;-76
2023/12/09 13:48:33;;;;;;;;;;;2.80;99.90;;;;;;5012896;28;19917;-77
2023/12/09 13:50:59;;;;;;;;;;;2.70;99.90;;;;;;5011139;28;19909;-77
2023/12/09 13:53:24;;;;;;;;;;;2.70;99.90;;;;;;5011130;28;20031;-77
2023/12/09 13:55:50;;;;;;;;;;;2.70;99.90;;;;;;5012980;28;19905;-77
2023/12/09 13:58:15;;;;;;;;;;;2.70;99.90;;;;;;5012105;28;19916;-75
2023/12/09 14:00:42;;;;;;;;;;;2.40;99.90;;;;;;5010492;28;20378;-76
2023/12/09 14:03:08;;;;;;;;;;;2.40;99.90;;;;;;5011424;28;19932;-77
2023/12/09 14:05:33;;;;;;;;;;;2.50;99.90;;;;;;5012031;28;19933;-76
2023/12/09 14:07:59;;;;;;;;;;;2.30;99.90;;;;;;5012139;28;19910;-76
2023/12/09 14:10:25;;;;;;;;;;;2.30;99.90;;;;;;5010817;28;20647;-76
2023/12/09 14:12:50;;;;;;;;;;;2.30;99.90;;;;;;5010184;28;19915;-77
2023/12/09 14:15:16;;;;;;;;;;;2.40;99.90;;;;;;5009953;28;19909;-76
2023/12/09 14:17:43;;;;;;;;;;;2.40;99.90;;;;;;5011482;28;20378;-77
2023/12/09 14:20:11;;;;;;;;;;;2.40;99.90;;;;;;5011043;28;20442;-74
2023/12/09 14:22:37;;;;;;;;;;;2.30;99.90;;;;;;5012189;28;19990;-74
2023/12/09 14:25:03;;;;;;;;;;;2.30;99.90;;;;;;5011855;28;19984;-77